Falken — SBCH — position and weather

sailwx.info

Track history (hours):
 
Tides and Currents Weather Stations Pressure Air Temp Water Temp Dewpoint Dewpoint Depression Visibility Wind Speed Wind Dir Waves Ship Positions

Falken (Sweden)

Last reported at 2014-Oct-31 18:33 UTC. Time now 2014-Oct-31 19:26 UTC.
Position N 43°33' E 010°18'.

Length 40 m; draft 4.2 m.

Type: Sailing vessel. MMSI: 265070000.

Date/timePositionNaut miles runAvg speedWind from/ knotsBaromVisibWave heightAir tempDewpointWater temp
2014-Oct-31 18:33N 43°33' E 010°18'0 0.0
2014-Oct-31 17:28N 43°33' E 010°18'0 0.0
2014-Oct-31 16:31N 43°33' E 010°18'0 0.0
2014-Oct-31 15:25N 43°33' E 010°18'0 0.0
2014-Oct-31 14:31N 43°33' E 010°18'0 0.0
2014-Oct-31 13:31N 43°33' E 010°18'0 0.0
2014-Oct-31 12:31N 43°33' E 010°18'0 0.0
2014-Oct-31 11:28N 43°33' E 010°18'0 0.0
2014-Oct-31 10:31N 43°33' E 010°18'0 0.0
2014-Oct-31 09:31N 43°33' E 010°18'0 0.0
2014-Oct-31 08:31N 43°33' E 010°18'0 0.0
2014-Oct-31 07:31N 43°33' E 010°18'0 0.0
2014-Oct-31 06:28N 43°33' E 010°18'0 0.0
2014-Oct-31 05:32N 43°33' E 010°18'0 0.0
2014-Oct-31 04:32N 43°33' E 010°18'0 0.0
2014-Oct-31 03:32N 43°33' E 010°18'0 0.0
2014-Oct-31 02:31N 43°33' E 010°18'0 0.0
2014-Oct-31 01:31N 43°33' E 010°18'0 0.0
2014-Oct-31 00:32N 43°33' E 010°18'0 0.0
2014-Oct-30 23:32N 43°33' E 010°18'0 0.0
2014-Oct-30 22:28N 43°33' E 010°18'0 0.0
2014-Oct-30 21:32N 43°33' E 010°18'0 0.0
2014-Oct-30 20:31N 43°33' E 010°18'0 0.0
2014-Oct-30 19:31N 43°33' E 010°18'0 0.0
2014-Oct-30 18:31N 43°33' E 010°18'0 0.0
2014-Oct-30 17:29N 43°33' E 010°18'0 0.0
2014-Oct-30 16:31N 43°33' E 010°18'0 0.0
2014-Oct-30 15:23N 43°33' E 010°18'0 0.0
2014-Oct-30 14:32N 43°33' E 010°18'0 0.0
2014-Oct-30 13:29N 43°33' E 010°18'0 0.0
2014-Oct-30 12:32N 43°33' E 010°18'0 0.0
2014-Oct-30 11:31N 43°33' E 010°18'0 0.0
2014-Oct-30 10:32N 43°33' E 010°18'0 0.0
2014-Oct-30 09:31N 43°33' E 010°18'1 0.8
2014-Oct-30 08:34N 43°32' E 010°17'3 3.3
2014-Oct-30 07:33N 43°30' E 010°15'0 0.1
2014-Oct-30 06:33N 43°30' E 010°15'2 1.6
2014-Oct-30 05:34N 43°30' E 010°12'3 2.9
2014-Oct-30 04:34N 43°29' E 010°08'3 2.9
2014-Oct-30 03:34N 43°29' E 010°04'3 3.2
2014-Oct-30 02:33N 43°29' E 010°00'4 4.1
2014-Oct-30 01:33N 43°28' E 009°55'4 4.5
2014-Oct-30 00:33N 43°27' E 009°49'5 4.8
2014-Oct-29 23:32N 43°26' E 009°42'5 5.1
2014-Oct-29 22:33N 43°24' E 009°35'5 5.6
2014-Oct-29 21:34N 43°23' E 009°28'6 5.5
2014-Oct-29 20:34N 43°21' E 009°21'2 1.6
2014-Oct-29 19:33N 43°21' E 009°19'1 0.7
2014-Oct-29 18:33N 43°21' E 009°20'0 0.2
2014-Oct-29 17:33N 43°21' E 009°20'5 4.9
2014-Oct-29 16:32N 43°20' E 009°13'5 4.7
2014-Oct-29 15:33N 43°19' E 009°07'120 5.9
2014-Oct-28 19:18N 42°42' E 006°31'13 4.5
2014-Oct-28 16:23N 42°41' E 006°13'5 6.6
2014-Oct-28 15:33N 42°45' E 006°08'6 6.3
2014-Oct-28 14:33N 42°50' E 006°03'3 3.4
2014-Oct-28 13:33N 42°53' E 006°02'5 5.0
2014-Oct-28 12:33N 42°58' E 006°01'5 5.2
2014-Oct-28 11:34N 43°03' E 005°58'3 2.7
2014-Oct-28 10:34N 43°06' E 005°56'1 1.5
2014-Oct-28 09:33N 43°07' E 005°56'0 0.2
2014-Oct-28 08:17N 43°07' E 005°56'0 0.0
2014-Oct-28 07:32N 43°07' E 005°56'0 0.0
2014-Oct-28 06:33N 43°07' E 005°56'0 0.0
2014-Oct-28 05:32N 43°07' E 005°56'0 0.0
2014-Oct-28 04:33N 43°07' E 005°56'0 0.0
2014-Oct-28 03:32N 43°07' E 005°56'0 0.0
2014-Oct-28 02:33N 43°07' E 005°56'0 0.0
2014-Oct-28 01:32N 43°07' E 005°56'0 0.0
2014-Oct-28 00:33N 43°07' E 005°56'0 0.0
2014-Oct-27 23:33N 43°07' E 005°56'0 0.0
2014-Oct-27 22:32N 43°07' E 005°56'0 0.0
2014-Oct-27 21:33N 43°07' E 005°56'0 0.0
2014-Oct-27 20:32N 43°07' E 005°56'0 0.0
2014-Oct-27 19:32N 43°07' E 005°56'0 0.0
2014-Oct-27 18:32N 43°07' E 005°56'0 0.0
2014-Oct-27 17:32N 43°07' E 005°56'0 0.0
2014-Oct-27 16:32N 43°07' E 005°56'0 0.0
2014-Oct-27 15:32N 43°07' E 005°56'0 0.0
2014-Oct-27 14:32N 43°07' E 005°56'0 0.0
2014-Oct-27 13:32N 43°07' E 005°56'0 0.0
2014-Oct-27 12:33N 43°07' E 005°56'0 0.0
2014-Oct-27 11:33N 43°07' E 005°56'0 0.0
2014-Oct-27 10:33N 43°07' E 005°56'0 0.0
2014-Oct-27 09:32N 43°07' E 005°56'0 0.0
2014-Oct-27 08:33N 43°07' E 005°56'0 0.0
2014-Oct-27 07:32N 43°07' E 005°56'0 0.0
2014-Oct-27 06:21N 43°07' E 005°56'0 0.0
2014-Oct-27 05:33N 43°07' E 005°56'0 0.0
2014-Oct-27 04:32N 43°07' E 005°56'0 0.0
2014-Oct-27 03:30N 43°07' E 005°56'0 0.0
2014-Oct-27 02:32N 43°07' E 005°56'0 0.0
2014-Oct-27 01:33N 43°07' E 005°56'0 0.0
2014-Oct-27 00:32N 43°07' E 005°56'0 0.0
2014-Oct-26 23:30N 43°07' E 005°56'0 0.0
2014-Oct-26 22:32N 43°07' E 005°56'0 0.0
2014-Oct-26 21:33N 43°07' E 005°56'0 0.0
2014-Oct-26 20:29N 43°07' E 005°56'0 0.0
2014-Oct-26 19:29N 43°07' E 005°56'0 0.0
2014-Oct-26 18:30N 43°07' E 005°56'30 1.0
2014-Oct-25 12:26N 42°42' E 005°32'7 3.1
2014-Oct-25 10:08N 42°36' E 005°29'6 3.7
2014-Oct-25 08:25N 42°35' E 005°21'4 4.0
2014-Oct-25 07:26N 42°33' E 005°16'3 2.7
2014-Oct-25 06:09N 42°31' E 005°12'6 3.1
2014-Oct-25 04:22N 42°29' E 005°06'32 4.7
2014-Oct-24 21:33N 42°13' E 004°28'7 6.5
2014-Oct-24 20:25N 42°09' E 004°19'6 6.0
2014-Oct-24 19:22N 42°06' E 004°12'4 5.2
2014-Oct-24 18:31N 42°03' E 004°08'5 5.0
2014-Oct-24 17:28N 41°59' E 004°03'5 5.2
2014-Oct-24 16:29N 41°55' E 003°59'5 5.1
2014-Oct-24 15:30N 41°51' E 003°54'5 4.3
2014-Oct-24 14:19N 41°47' E 003°50'4 3.6
2014-Oct-24 13:21N 41°44' E 003°49'3 3.7
2014-Oct-24 12:33N 41°42' E 003°46'4 3.4
2014-Oct-24 11:18N 41°40' E 003°41'3 3.5
2014-Oct-24 10:29N 41°39' E 003°37'4 3.5
2014-Oct-24 09:22N 41°39' E 003°32'3 3.0
2014-Oct-24 08:29N 41°39' E 003°28'48 4.3
2014-Oct-23 21:14N 41°03' E 002°45'5 5.1
2014-Oct-23 20:15N 40°58' E 002°44'4 4.8
2014-Oct-23 19:25N 40°55' E 002°42'4 4.1
2014-Oct-23 18:24N 40°51' E 002°41'2 2.6
2014-Oct-23 17:30N 40°48' E 002°40'1 1.1
2014-Oct-23 16:25N 40°48' E 002°39'1 0.7
2014-Oct-23 15:26N 40°48' E 002°38'4 4.3
2014-Oct-23 14:29N 40°45' E 002°35'4 3.3
2014-Oct-23 13:24N 40°42' E 002°32'4 3.6
2014-Oct-23 12:24N 40°40' E 002°28'3 4.1
2014-Oct-23 11:34N 40°37' E 002°25'3 3.1
2014-Oct-23 10:34N 40°35' E 002°22'4 3.0
2014-Oct-23 09:24N 40°32' E 002°19'2 2.1
2014-Oct-23 08:33N 40°31' E 002°18'3 1.8
2014-Oct-23 07:09N 40°29' E 002°16'2 3.5
2014-Oct-23 06:27N 40°27' E 002°14'  
Track history (hours):
 
Tides and Currents Weather Stations Pressure Air Temp Water Temp Dewpoint Dewpoint Depression Visibility Wind Speed Wind Dir Waves Ship Positions

Falken (Sweden)

Last reported at 2014-Oct-31 18:33 UTC. Time now 2014-Oct-31 19:26 UTC.
Position N 43°33' E 010°18'.

Length 40 m; draft 4.2 m.

Type: Sailing vessel. MMSI: 265070000.

Date/timePositionNaut miles runAvg speedWind from/ knotsBaromVisibWave heightAir tempDewpointWater temp
2014-Oct-31 18:33N 43°33' E 010°18'0 0.0
2014-Oct-31 17:28N 43°33' E 010°18'0 0.0
2014-Oct-31 16:31N 43°33' E 010°18'0 0.0
2014-Oct-31 15:25N 43°33' E 010°18'0 0.0
2014-Oct-31 14:31N 43°33' E 010°18'0 0.0
2014-Oct-31 13:31N 43°33' E 010°18'0 0.0
2014-Oct-31 12:31N 43°33' E 010°18'0 0.0
2014-Oct-31 11:28N 43°33' E 010°18'0 0.0
2014-Oct-31 10:31N 43°33' E 010°18'0 0.0
2014-Oct-31 09:31N 43°33' E 010°18'0 0.0
2014-Oct-31 08:31N 43°33' E 010°18'0 0.0
2014-Oct-31 07:31N 43°33' E 010°18'0 0.0
2014-Oct-31 06:28N 43°33' E 010°18'0 0.0
2014-Oct-31 05:32N 43°33' E 010°18'0 0.0
2014-Oct-31 04:32N 43°33' E 010°18'0 0.0
2014-Oct-31 03:32N 43°33' E 010°18'0 0.0
2014-Oct-31 02:31N 43°33' E 010°18'0 0.0
2014-Oct-31 01:31N 43°33' E 010°18'0 0.0
2014-Oct-31 00:32N 43°33' E 010°18'0 0.0
2014-Oct-30 23:32N 43°33' E 010°18'0 0.0
2014-Oct-30 22:28N 43°33' E 010°18'0 0.0
2014-Oct-30 21:32N 43°33' E 010°18'0 0.0
2014-Oct-30 20:31N 43°33' E 010°18'0 0.0
2014-Oct-30 19:31N 43°33' E 010°18'0 0.0
2014-Oct-30 18:31N 43°33' E 010°18'0 0.0
2014-Oct-30 17:29N 43°33' E 010°18'0 0.0
2014-Oct-30 16:31N 43°33' E 010°18'0 0.0
2014-Oct-30 15:23N 43°33' E 010°18'0 0.0
2014-Oct-30 14:32N 43°33' E 010°18'0 0.0
2014-Oct-30 13:29N 43°33' E 010°18'0 0.0
2014-Oct-30 12:32N 43°33' E 010°18'0 0.0
2014-Oct-30 11:31N 43°33' E 010°18'0 0.0
2014-Oct-30 10:32N 43°33' E 010°18'0 0.0
2014-Oct-30 09:31N 43°33' E 010°18'1 0.8
2014-Oct-30 08:34N 43°32' E 010°17'3 3.3
2014-Oct-30 07:33N 43°30' E 010°15'0 0.1
2014-Oct-30 06:33N 43°30' E 010°15'2 1.6
2014-Oct-30 05:34N 43°30' E 010°12'3 2.9
2014-Oct-30 04:34N 43°29' E 010°08'3 2.9
2014-Oct-30 03:34N 43°29' E 010°04'3 3.2
2014-Oct-30 02:33N 43°29' E 010°00'4 4.1
2014-Oct-30 01:33N 43°28' E 009°55'4 4.5
2014-Oct-30 00:33N 43°27' E 009°49'5 4.8
2014-Oct-29 23:32N 43°26' E 009°42'5 5.1
2014-Oct-29 22:33N 43°24' E 009°35'5 5.6
2014-Oct-29 21:34N 43°23' E 009°28'6 5.5
2014-Oct-29 20:34N 43°21' E 009°21'2 1.6
2014-Oct-29 19:33N 43°21' E 009°19'1 0.7
2014-Oct-29 18:33N 43°21' E 009°20'0 0.2
2014-Oct-29 17:33N 43°21' E 009°20'5 4.9
2014-Oct-29 16:32N 43°20' E 009°13'5 4.7
2014-Oct-29 15:33N 43°19' E 009°07'120 5.9
2014-Oct-28 19:18N 42°42' E 006°31'13 4.5
2014-Oct-28 16:23N 42°41' E 006°13'5 6.6
2014-Oct-28 15:33N 42°45' E 006°08'6 6.3
2014-Oct-28 14:33N 42°50' E 006°03'3 3.4
2014-Oct-28 13:33N 42°53' E 006°02'5 5.0
2014-Oct-28 12:33N 42°58' E 006°01'5 5.2
2014-Oct-28 11:34N 43°03' E 005°58'3 2.7
2014-Oct-28 10:34N 43°06' E 005°56'1 1.5
2014-Oct-28 09:33N 43°07' E 005°56'0 0.2
2014-Oct-28 08:17N 43°07' E 005°56'0 0.0
2014-Oct-28 07:32N 43°07' E 005°56'0 0.0
2014-Oct-28 06:33N 43°07' E 005°56'0 0.0
2014-Oct-28 05:32N 43°07' E 005°56'0 0.0
2014-Oct-28 04:33N 43°07' E 005°56'0 0.0
2014-Oct-28 03:32N 43°07' E 005°56'0 0.0
2014-Oct-28 02:33N 43°07' E 005°56'0 0.0
2014-Oct-28 01:32N 43°07' E 005°56'0 0.0
2014-Oct-28 00:33N 43°07' E 005°56'0 0.0
2014-Oct-27 23:33N 43°07' E 005°56'0 0.0
2014-Oct-27 22:32N 43°07' E 005°56'0 0.0
2014-Oct-27 21:33N 43°07' E 005°56'0 0.0
2014-Oct-27 20:32N 43°07' E 005°56'0 0.0
2014-Oct-27 19:32N 43°07' E 005°56'0 0.0
2014-Oct-27 18:32N 43°07' E 005°56'0 0.0
2014-Oct-27 17:32N 43°07' E 005°56'0 0.0
2014-Oct-27 16:32N 43°07' E 005°56'0 0.0
2014-Oct-27 15:32N 43°07' E 005°56'0 0.0
2014-Oct-27 14:32N 43°07' E 005°56'0 0.0
2014-Oct-27 13:32N 43°07' E 005°56'0 0.0
2014-Oct-27 12:33N 43°07' E 005°56'0 0.0
2014-Oct-27 11:33N 43°07' E 005°56'0 0.0
2014-Oct-27 10:33N 43°07' E 005°56'0 0.0
2014-Oct-27 09:32N 43°07' E 005°56'0 0.0
2014-Oct-27 08:33N 43°07' E 005°56'0 0.0
2014-Oct-27 07:32N 43°07' E 005°56'0 0.0
2014-Oct-27 06:21N 43°07' E 005°56'0 0.0
2014-Oct-27 05:33N 43°07' E 005°56'0 0.0
2014-Oct-27 04:32N 43°07' E 005°56'0 0.0
2014-Oct-27 03:30N 43°07' E 005°56'0 0.0
2014-Oct-27 02:32N 43°07' E 005°56'0 0.0
2014-Oct-27 01:33N 43°07' E 005°56'0 0.0
2014-Oct-27 00:32N 43°07' E 005°56'0 0.0
2014-Oct-26 23:30N 43°07' E 005°56'0 0.0
2014-Oct-26 22:32N 43°07' E 005°56'0 0.0
2014-Oct-26 21:33N 43°07' E 005°56'0 0.0
2014-Oct-26 20:29N 43°07' E 005°56'0 0.0
2014-Oct-26 19:29N 43°07' E 005°56'0 0.0
2014-Oct-26 18:30N 43°07' E 005°56'30 1.0
2014-Oct-25 12:26N 42°42' E 005°32'7 3.1
2014-Oct-25 10:08N 42°36' E 005°29'6 3.7
2014-Oct-25 08:25N 42°35' E 005°21'4 4.0
2014-Oct-25 07:26N 42°33' E 005°16'3 2.7
2014-Oct-25 06:09N 42°31' E 005°12'6 3.1
2014-Oct-25 04:22N 42°29' E 005°06'32 4.7
2014-Oct-24 21:33N 42°13' E 004°28'7 6.5
2014-Oct-24 20:25N 42°09' E 004°19'6 6.0
2014-Oct-24 19:22N 42°06' E 004°12'4 5.2
2014-Oct-24 18:31N 42°03' E 004°08'5 5.0
2014-Oct-24 17:28N 41°59' E 004°03'5 5.2
2014-Oct-24 16:29N 41°55' E 003°59'5 5.1
2014-Oct-24 15:30N 41°51' E 003°54'5 4.3
2014-Oct-24 14:19N 41°47' E 003°50'4 3.6
2014-Oct-24 13:21N 41°44' E 003°49'3 3.7
2014-Oct-24 12:33N 41°42' E 003°46'4 3.4
2014-Oct-24 11:18N 41°40' E 003°41'3 3.5
2014-Oct-24 10:29N 41°39' E 003°37'4 3.5
2014-Oct-24 09:22N 41°39' E 003°32'3 3.0
2014-Oct-24 08:29N 41°39' E 003°28'48 4.3
2014-Oct-23 21:14N 41°03' E 002°45'5 5.1
2014-Oct-23 20:15N 40°58' E 002°44'4 4.8
2014-Oct-23 19:25N 40°55' E 002°42'4 4.1
2014-Oct-23 18:24N 40°51' E 002°41'2 2.6
2014-Oct-23 17:30N 40°48' E 002°40'1 1.1
2014-Oct-23 16:25N 40°48' E 002°39'1 0.7
2014-Oct-23 15:26N 40°48' E 002°38'4 4.3
2014-Oct-23 14:29N 40°45' E 002°35'4 3.3
2014-Oct-23 13:24N 40°42' E 002°32'4 3.6
2014-Oct-23 12:24N 40°40' E 002°28'3 4.1
2014-Oct-23 11:34N 40°37' E 002°25'3 3.1
2014-Oct-23 10:34N 40°35' E 002°22'4 3.0
2014-Oct-23 09:24N 40°32' E 002°19'2 2.1
2014-Oct-23 08:33N 40°31' E 002°18'3 1.8
2014-Oct-23 07:09N 40°29' E 002°16'2 3.5
2014-Oct-23 06:27N 40°27' E 002°14'  

Dump ship's entire track history